sensor_id;sensor_type;location;lat;lon;timestamp;P1;durP1;ratioP1;P2;durP2;ratioP2
23175;SDS011;19910;42.652;23.332;2022-07-03T00:01:51;5.80;;;3.40;;
23175;SDS011;19910;42.652;23.332;2022-07-03T00:04:17;4.70;;;3.47;;
23175;SDS011;19910;42.652;23.332;2022-07-03T00:06:45;5.63;;;4.35;;
23175;SDS011;19910;42.652;23.332;2022-07-03T00:09:12;7.35;;;5.30;;
23175;SDS011;19910;42.652;23.332;2022-07-03T00:11:39;7.00;;;4.20;;
23175;SDS011;19910;42.652;23.332;2022-07-03T00:14:08;5.55;;;5.00;;
23175;SDS011;19910;42.652;23.332;2022-07-03T00:16:34;5.03;;;3.40;;
23175;SDS011;19910;42.652;23.332;2022-07-03T00:19:02;6.38;;;4.22;;
23175;SDS011;19910;42.652;23.332;2022-07-03T00:21:31;4.07;;;3.30;;
23175;SDS011;19910;42.652;23.332;2022-07-03T00:24:02;6.60;;;5.38;;
23175;SDS011;19910;42.652;23.332;2022-07-03T00:26:33;6.18;;;5.18;;
23175;SDS011;19910;42.652;23.332;2022-07-03T00:29:02;4.22;;;3.28;;
23175;SDS011;19910;42.652;23.332;2022-07-03T00:31:31;5.68;;;3.85;;
23175;SDS011;19910;42.652;23.332;2022-07-03T00:33:59;5.63;;;3.97;;
23175;SDS011;19910;42.652;23.332;2022-07-03T00:36:29;7.60;;;3.47;;
23175;SDS011;19910;42.652;23.332;2022-07-03T00:38:59;5.13;;;3.50;;
23175;SDS011;19910;42.652;23.332;2022-07-03T00:41:26;5.88;;;3.60;;
23175;SDS011;19910;42.652;23.332;2022-07-03T00:43:54;4.93;;;3.47;;
23175;SDS011;19910;42.652;23.332;2022-07-03T00:46:22;6.13;;;3.45;;
23175;SDS011;19910;42.652;23.332;2022-07-03T00:48:51;5.25;;;4.75;;
23175;SDS011;19910;42.652;23.332;2022-07-03T00:51:21;4.80;;;4.25;;
23175;SDS011;19910;42.652;23.332;2022-07-03T00:53:49;4.95;;;3.55;;
23175;SDS011;19910;42.652;23.332;2022-07-03T00:56:19;5.38;;;3.65;;
23175;SDS011;19910;42.652;23.332;2022-07-03T00:58:49;5.07;;;3.83;;
23175;SDS011;19910;42.652;23.332;2022-07-03T01:01:19;5.13;;;3.75;;
23175;SDS011;19910;42.652;23.332;2022-07-03T01:03:47;6.28;;;3.83;;
23175;SDS011;19910;42.652;23.332;2022-07-03T01:06:22;5.28;;;3.42;;
23175;SDS011;19910;42.652;23.332;2022-07-03T01:08:51;4.85;;;3.83;;
23175;SDS011;19910;42.652;23.332;2022-07-03T01:11:25;4.97;;;3.17;;
23175;SDS011;19910;42.652;23.332;2022-07-03T01:14:00;4.93;;;3.13;;
23175;SDS011;19910;42.652;23.332;2022-07-03T01:16:37;6.22;;;3.70;;
23175;SDS011;19910;42.652;23.332;2022-07-03T01:19:10;7.30;;;3.80;;
23175;SDS011;19910;42.652;23.332;2022-07-03T01:21:48;5.70;;;3.45;;
23175;SDS011;19910;42.652;23.332;2022-07-03T01:24:37;5.13;;;3.58;;
23175;SDS011;19910;42.652;23.332;2022-07-03T01:27:13;7.88;;;3.65;;
23175;SDS011;19910;42.652;23.332;2022-07-03T01:32:31;7.95;;;3.67;;
23175;SDS011;19910;42.652;23.332;2022-07-03T01:35:00;5.10;;;4.60;;
23175;SDS011;19910;42.652;23.332;2022-07-03T01:37:27;7.57;;;3.78;;
23175;SDS011;19910;42.652;23.332;2022-07-03T01:39:57;5.38;;;3.65;;
23175;SDS011;19910;42.652;23.332;2022-07-03T01:42:26;5.40;;;3.97;;
23175;SDS011;19910;42.652;23.332;2022-07-03T01:44:55;4.80;;;3.28;;
23175;SDS011;19910;42.652;23.332;2022-07-03T01:47:25;5.20;;;3.83;;
23175;SDS011;19910;42.652;23.332;2022-07-03T01:49:53;4.90;;;3.35;;
23175;SDS011;19910;42.652;23.332;2022-07-03T01:52:20;4.65;;;3.83;;
23175;SDS011;19910;42.652;23.332;2022-07-03T01:54:47;5.93;;;4.10;;
23175;SDS011;19910;42.652;23.332;2022-07-03T01:57:16;9.07;;;4.22;;
23175;SDS011;19910;42.652;23.332;2022-07-03T01:59:44;6.78;;;4.30;;
23175;SDS011;19910;42.652;23.332;2022-07-03T02:02:14;6.97;;;4.07;;
23175;SDS011;19910;42.652;23.332;2022-07-03T02:04:51;7.30;;;4.13;;
23175;SDS011;19910;42.652;23.332;2022-07-03T02:07:28;5.18;;;4.18;;
23175;SDS011;19910;42.652;23.332;2022-07-03T02:10:06;6.72;;;4.18;;
23175;SDS011;19910;42.652;23.332;2022-07-03T02:12:36;7.55;;;4.85;;
23175;SDS011;19910;42.652;23.332;2022-07-03T02:15:08;4.75;;;3.63;;
23175;SDS011;19910;42.652;23.332;2022-07-03T02:17:36;5.97;;;4.80;;
23175;SDS011;19910;42.652;23.332;2022-07-03T02:20:05;7.13;;;4.88;;
23175;SDS011;19910;42.652;23.332;2022-07-03T02:22:34;9.57;;;4.50;;
23175;SDS011;19910;42.652;23.332;2022-07-03T02:25:03;7.40;;;4.78;;
23175;SDS011;19910;42.652;23.332;2022-07-03T02:27:32;10.20;;;5.93;;
23175;SDS011;19910;42.652;23.332;2022-07-03T02:30:09;6.80;;;4.68;;
23175;SDS011;19910;42.652;23.332;2022-07-03T02:32:40;8.00;;;4.53;;
23175;SDS011;19910;42.652;23.332;2022-07-03T02:35:11;10.07;;;4.53;;
23175;SDS011;19910;42.652;23.332;2022-07-03T02:37:45;7.63;;;4.75;;
23175;SDS011;19910;42.652;23.332;2022-07-03T02:40:27;8.05;;;4.45;;
23175;SDS011;19910;42.652;23.332;2022-07-03T02:43:09;10.70;;;5.18;;
23175;SDS011;19910;42.652;23.332;2022-07-03T02:45:45;10.93;;;4.45;;
23175;SDS011;19910;42.652;23.332;2022-07-03T02:48:22;9.02;;;4.93;;
23175;SDS011;19910;42.652;23.332;2022-07-03T02:50:55;7.30;;;4.53;;
23175;SDS011;19910;42.652;23.332;2022-07-03T02:53:30;7.07;;;5.03;;
23175;SDS011;19910;42.652;23.332;2022-07-03T02:56:05;10.55;;;4.85;;
23175;SDS011;19910;42.652;23.332;2022-07-03T02:58:52;5.82;;;4.53;;
23175;SDS011;19910;42.652;23.332;2022-07-03T03:01:37;6.78;;;4.30;;
23175;SDS011;19910;42.652;23.332;2022-07-03T03:04:09;6.70;;;4.45;;
23175;SDS011;19910;42.652;23.332;2022-07-03T03:06:41;7.00;;;4.80;;
23175;SDS011;19910;42.652;23.332;2022-07-03T03:09:14;7.32;;;4.82;;
23175;SDS011;19910;42.652;23.332;2022-07-03T03:11:45;5.97;;;3.85;;
23175;SDS011;19910;42.652;23.332;2022-07-03T03:14:13;6.68;;;4.70;;
23175;SDS011;19910;42.652;23.332;2022-07-03T03:16:45;7.70;;;4.80;;
23175;SDS011;19910;42.652;23.332;2022-07-03T03:19:13;6.90;;;4.45;;
23175;SDS011;19910;42.652;23.332;2022-07-03T03:21:42;8.85;;;6.53;;
23175;SDS011;19910;42.652;23.332;2022-07-03T03:24:18;7.88;;;6.43;;
23175;SDS011;19910;42.652;23.332;2022-07-03T03:26:47;7.93;;;6.25;;
23175;SDS011;19910;42.652;23.332;2022-07-03T03:29:14;7.68;;;6.88;;
23175;SDS011;19910;42.652;23.332;2022-07-03T03:31:42;6.63;;;5.88;;
23175;SDS011;19910;42.652;23.332;2022-07-03T03:34:09;8.65;;;4.93;;
23175;SDS011;19910;42.652;23.332;2022-07-03T03:36:37;9.75;;;5.13;;
23175;SDS011;19910;42.652;23.332;2022-07-03T03:39:04;10.68;;;7.00;;
23175;SDS011;19910;42.652;23.332;2022-07-03T03:41:31;9.30;;;6.88;;
23175;SDS011;19910;42.652;23.332;2022-07-03T03:43:59;9.27;;;6.55;;
23175;SDS011;19910;42.652;23.332;2022-07-03T03:46:26;7.68;;;6.22;;
23175;SDS011;19910;42.652;23.332;2022-07-03T03:48:54;6.45;;;5.80;;
23175;SDS011;19910;42.652;23.332;2022-07-03T03:51:21;7.88;;;5.53;;
23175;SDS011;19910;42.652;23.332;2022-07-03T03:53:47;7.15;;;5.30;;
23175;SDS011;19910;42.652;23.332;2022-07-03T03:56:14;8.73;;;6.82;;
23175;SDS011;19910;42.652;23.332;2022-07-03T03:58:42;7.18;;;6.45;;
23175;SDS011;19910;42.652;23.332;2022-07-03T04:01:10;7.28;;;5.82;;
23175;SDS011;19910;42.652;23.332;2022-07-03T04:03:38;7.70;;;6.68;;
23175;SDS011;19910;42.652;23.332;2022-07-03T04:06:07;9.57;;;6.45;;
23175;SDS011;19910;42.652;23.332;2022-07-03T04:08:34;6.90;;;5.93;;
23175;SDS011;19910;42.652;23.332;2022-07-03T04:11:01;7.85;;;7.05;;
23175;SDS011;19910;42.652;23.332;2022-07-03T04:13:28;7.53;;;6.53;;
23175;SDS011;19910;42.652;23.332;2022-07-03T04:15:55;9.05;;;7.63;;
23175;SDS011;19910;42.652;23.332;2022-07-03T04:18:23;10.27;;;7.43;;
23175;SDS011;19910;42.652;23.332;2022-07-03T04:20:50;9.15;;;7.20;;
23175;SDS011;19910;42.652;23.332;2022-07-03T04:23:18;7.78;;;7.07;;
23175;SDS011;19910;42.652;23.332;2022-07-03T04:25:45;8.77;;;7.40;;
23175;SDS011;19910;42.652;23.332;2022-07-03T04:28:12;8.85;;;7.13;;
23175;SDS011;19910;42.652;23.332;2022-07-03T04:30:39;7.53;;;6.72;;
23175;SDS011;19910;42.652;23.332;2022-07-03T04:33:06;8.07;;;7.20;;
23175;SDS011;19910;42.652;23.332;2022-07-03T04:35:33;8.65;;;7.45;;
23175;SDS011;19910;42.652;23.332;2022-07-03T04:38:00;8.07;;;7.25;;
23175;SDS011;19910;42.652;23.332;2022-07-03T04:40:28;8.57;;;7.13;;
23175;SDS011;19910;42.652;23.332;2022-07-03T04:42:54;8.52;;;7.65;;
23175;SDS011;19910;42.652;23.332;2022-07-03T04:45:21;8.15;;;7.03;;
23175;SDS011;19910;42.652;23.332;2022-07-03T04:47:48;9.90;;;7.55;;
23175;SDS011;19910;42.652;23.332;2022-07-03T04:50:15;8.23;;;7.18;;
23175;SDS011;19910;42.652;23.332;2022-07-03T04:52:42;8.68;;;7.30;;
23175;SDS011;19910;42.652;23.332;2022-07-03T04:55:09;8.38;;;7.45;;
23175;SDS011;19910;42.652;23.332;2022-07-03T04:57:38;8.30;;;7.40;;
23175;SDS011;19910;42.652;23.332;2022-07-03T05:00:05;8.25;;;7.45;;
23175;SDS011;19910;42.652;23.332;2022-07-03T05:02:33;8.13;;;7.30;;
23175;SDS011;19910;42.652;23.332;2022-07-03T05:05:00;9.95;;;7.38;;
23175;SDS011;19910;42.652;23.332;2022-07-03T05:07:27;9.40;;;7.22;;
23175;SDS011;19910;42.652;23.332;2022-07-03T05:09:54;7.45;;;6.57;;
23175;SDS011;19910;42.652;23.332;2022-07-03T05:12:20;7.93;;;7.13;;
23175;SDS011;19910;42.652;23.332;2022-07-03T05:14:48;7.40;;;6.70;;
23175;SDS011;19910;42.652;23.332;2022-07-03T05:17:16;7.25;;;6.55;;
23175;SDS011;19910;42.652;23.332;2022-07-03T05:19:43;6.53;;;5.85;;
23175;SDS011;19910;42.652;23.332;2022-07-03T05:22:10;7.05;;;6.35;;
23175;SDS011;19910;42.652;23.332;2022-07-03T05:24:37;7.60;;;6.43;;
23175;SDS011;19910;42.652;23.332;2022-07-03T05:27:04;7.22;;;6.50;;
23175;SDS011;19910;42.652;23.332;2022-07-03T05:29:31;8.50;;;6.63;;
23175;SDS011;19910;42.652;23.332;2022-07-03T05:31:59;6.97;;;6.28;;
23175;SDS011;19910;42.652;23.332;2022-07-03T05:34:26;8.68;;;6.82;;
23175;SDS011;19910;42.652;23.332;2022-07-03T05:36:53;7.10;;;6.43;;
23175;SDS011;19910;42.652;23.332;2022-07-03T05:39:21;7.32;;;6.63;;
23175;SDS011;19910;42.652;23.332;2022-07-03T05:42:03;12.55;;;7.05;;
23175;SDS011;19910;42.652;23.332;2022-07-03T05:44:30;7.10;;;6.40;;
23175;SDS011;19910;42.652;23.332;2022-07-03T05:46:57;6.47;;;5.70;;
23175;SDS011;19910;42.652;23.332;2022-07-03T05:49:25;7.05;;;6.30;;
23175;SDS011;19910;42.652;23.332;2022-07-03T05:51:52;8.48;;;6.55;;
23175;SDS011;19910;42.652;23.332;2022-07-03T05:54:19;6.78;;;6.07;;
23175;SDS011;19910;42.652;23.332;2022-07-03T05:56:46;7.35;;;6.60;;
23175;SDS011;19910;42.652;23.332;2022-07-03T05:59:13;8.55;;;6.20;;
23175;SDS011;19910;42.652;23.332;2022-07-03T06:01:40;7.13;;;6.43;;
23175;SDS011;19910;42.652;23.332;2022-07-03T06:04:07;9.30;;;6.75;;
23175;SDS011;19910;42.652;23.332;2022-07-03T06:06:35;6.38;;;5.78;;
23175;SDS011;19910;42.652;23.332;2022-07-03T06:09:02;6.78;;;6.10;;
23175;SDS011;19910;42.652;23.332;2022-07-03T06:11:28;9.10;;;6.45;;
23175;SDS011;19910;42.652;23.332;2022-07-03T06:13:55;8.30;;;6.45;;
23175;SDS011;19910;42.652;23.332;2022-07-03T06:16:22;9.00;;;7.03;;
23175;SDS011;19910;42.652;23.332;2022-07-03T06:18:49;8.80;;;6.40;;
23175;SDS011;19910;42.652;23.332;2022-07-03T06:21:16;6.90;;;6.18;;
23175;SDS011;19910;42.652;23.332;2022-07-03T06:23:44;8.48;;;6.32;;
23175;SDS011;19910;42.652;23.332;2022-07-03T06:26:11;7.50;;;6.38;;
23175;SDS011;19910;42.652;23.332;2022-07-03T06:28:37;7.60;;;6.80;;
23175;SDS011;19910;42.652;23.332;2022-07-03T06:31:04;7.93;;;7.10;;
23175;SDS011;19910;42.652;23.332;2022-07-03T06:33:31;9.55;;;6.55;;
23175;SDS011;19910;42.652;23.332;2022-07-03T06:35:58;7.38;;;6.68;;
23175;SDS011;19910;42.652;23.332;2022-07-03T06:38:24;7.10;;;6.40;;
23175;SDS011;19910;42.652;23.332;2022-07-03T06:40:53;7.03;;;6.30;;
23175;SDS011;19910;42.652;23.332;2022-07-03T06:43:19;7.32;;;6.45;;
23175;SDS011;19910;42.652;23.332;2022-07-03T06:45:46;7.82;;;6.65;;
23175;SDS011;19910;42.652;23.332;2022-07-03T06:48:13;7.00;;;6.30;;
23175;SDS011;19910;42.652;23.332;2022-07-03T06:50:40;8.32;;;6.55;;
23175;SDS011;19910;42.652;23.332;2022-07-03T06:53:07;8.60;;;6.65;;
23175;SDS011;19910;42.652;23.332;2022-07-03T06:55:33;7.60;;;6.40;;
23175;SDS011;19910;42.652;23.332;2022-07-03T06:58:01;8.15;;;6.43;;
23175;SDS011;19910;42.652;23.332;2022-07-03T07:00:28;7.38;;;6.57;;
23175;SDS011;19910;42.652;23.332;2022-07-03T07:02:55;8.27;;;6.82;;
23175;SDS011;19910;42.652;23.332;2022-07-03T07:05:22;9.73;;;7.30;;
23175;SDS011;19910;42.652;23.332;2022-07-03T07:07:49;7.97;;;7.15;;
23175;SDS011;19910;42.652;23.332;2022-07-03T07:10:16;8.05;;;6.40;;
23175;SDS011;19910;42.652;23.332;2022-07-03T07:12:43;7.30;;;6.57;;
23175;SDS011;19910;42.652;23.332;2022-07-03T07:15:11;8.65;;;6.35;;
23175;SDS011;19910;42.652;23.332;2022-07-03T07:17:38;9.75;;;6.75;;
23175;SDS011;19910;42.652;23.332;2022-07-03T07:20:05;8.57;;;6.55;;
23175;SDS011;19910;42.652;23.332;2022-07-03T07:22:32;7.85;;;6.95;;
23175;SDS011;19910;42.652;23.332;2022-07-03T07:25:00;7.15;;;6.35;;
23175;SDS011;19910;42.652;23.332;2022-07-03T07:27:27;7.95;;;6.90;;
23175;SDS011;19910;42.652;23.332;2022-07-03T07:29:53;7.53;;;6.82;;
23175;SDS011;19910;42.652;23.332;2022-07-03T07:32:22;9.00;;;6.25;;
23175;SDS011;19910;42.652;23.332;2022-07-03T07:34:49;8.00;;;6.82;;
23175;SDS011;19910;42.652;23.332;2022-07-03T07:37:15;9.38;;;6.28;;
23175;SDS011;19910;42.652;23.332;2022-07-03T07:39:42;7.00;;;6.25;;
23175;SDS011;19910;42.652;23.332;2022-07-03T07:42:09;7.03;;;6.20;;
23175;SDS011;19910;42.652;23.332;2022-07-03T07:44:36;7.60;;;6.78;;
23175;SDS011;19910;42.652;23.332;2022-07-03T07:47:03;7.80;;;7.03;;
23175;SDS011;19910;42.652;23.332;2022-07-03T07:49:31;7.82;;;6.43;;
23175;SDS011;19910;42.652;23.332;2022-07-03T07:51:58;9.00;;;6.70;;
23175;SDS011;19910;42.652;23.332;2022-07-03T07:54:25;7.63;;;6.68;;
23175;SDS011;19910;42.652;23.332;2022-07-03T07:56:51;7.30;;;6.43;;
23175;SDS011;19910;42.652;23.332;2022-07-03T07:59:18;8.95;;;6.50;;
23175;SDS011;19910;42.652;23.332;2022-07-03T08:01:45;7.45;;;6.65;;
23175;SDS011;19910;42.652;23.332;2022-07-03T08:04:28;7.30;;;6.18;;
23175;SDS011;19910;42.652;23.332;2022-07-03T08:07:14;7.40;;;6.60;;
23175;SDS011;19910;42.652;23.332;2022-07-03T08:09:41;8.15;;;6.95;;
23175;SDS011;19910;42.652;23.332;2022-07-03T08:12:08;8.00;;;6.57;;
23175;SDS011;19910;42.652;23.332;2022-07-03T08:14:35;8.80;;;6.90;;
23175;SDS011;19910;42.652;23.332;2022-07-03T08:17:03;9.98;;;7.10;;
23175;SDS011;19910;42.652;23.332;2022-07-03T08:19:30;7.05;;;6.20;;
23175;SDS011;19910;42.652;23.332;2022-07-03T08:21:56;8.50;;;6.72;;
23175;SDS011;19910;42.652;23.332;2022-07-03T08:24:25;8.88;;;7.18;;
23175;SDS011;19910;42.652;23.332;2022-07-03T08:26:52;8.45;;;6.93;;
23175;SDS011;19910;42.652;23.332;2022-07-03T08:29:19;6.85;;;6.13;;
23175;SDS011;19910;42.652;23.332;2022-07-03T08:31:46;6.53;;;5.95;;
23175;SDS011;19910;42.652;23.332;2022-07-03T08:34:12;6.38;;;5.78;;
23175;SDS011;19910;42.652;23.332;2022-07-03T08:36:40;6.70;;;6.10;;
23175;SDS011;19910;42.652;23.332;2022-07-03T08:39:07;6.60;;;6.00;;
23175;SDS011;19910;42.652;23.332;2022-07-03T08:41:36;9.35;;;5.97;;
23175;SDS011;19910;42.652;23.332;2022-07-03T08:44:05;6.60;;;6.00;;
23175;SDS011;19910;42.652;23.332;2022-07-03T08:46:33;6.65;;;6.00;;
23175;SDS011;19910;42.652;23.332;2022-07-03T08:49:01;6.43;;;5.82;;
23175;SDS011;19910;42.652;23.332;2022-07-03T08:51:29;6.53;;;5.93;;
23175;SDS011;19910;42.652;23.332;2022-07-03T08:53:56;6.22;;;5.63;;
23175;SDS011;19910;42.652;23.332;2022-07-03T08:56:26;6.65;;;5.95;;
23175;SDS011;19910;42.652;23.332;2022-07-03T08:58:54;6.10;;;5.50;;
23175;SDS011;19910;42.652;23.332;2022-07-03T09:01:23;6.47;;;5.38;;
23175;SDS011;19910;42.652;23.332;2022-07-03T09:03:51;5.95;;;5.32;;
23175;SDS011;19910;42.652;23.332;2022-07-03T09:06:19;5.70;;;5.07;;
23175;SDS011;19910;42.652;23.332;2022-07-03T09:08:47;6.07;;;5.20;;
23175;SDS011;19910;42.652;23.332;2022-07-03T09:11:15;6.55;;;5.35;;
23175;SDS011;19910;42.652;23.332;2022-07-03T09:13:43;5.82;;;5.25;;
23175;SDS011;19910;42.652;23.332;2022-07-03T09:16:15;5.93;;;5.38;;
23175;SDS011;19910;42.652;23.332;2022-07-03T09:18:43;7.35;;;5.45;;
23175;SDS011;19910;42.652;23.332;2022-07-03T09:21:11;5.13;;;4.65;;
23175;SDS011;19910;42.652;23.332;2022-07-03T09:23:39;4.65;;;4.22;;
23175;SDS011;19910;42.652;23.332;2022-07-03T09:26:11;5.60;;;5.10;;
23175;SDS011;19910;42.652;23.332;2022-07-03T09:28:46;5.50;;;4.88;;
23175;SDS011;19910;42.652;23.332;2022-07-03T09:31:18;5.68;;;5.13;;
23175;SDS011;19910;42.652;23.332;2022-07-03T09:36:41;5.85;;;5.32;;
23175;SDS011;19910;42.652;23.332;2022-07-03T09:39:13;6.20;;;5.43;;
23175;SDS011;19910;42.652;23.332;2022-07-03T09:41:51;5.20;;;4.72;;
23175;SDS011;19910;42.652;23.332;2022-07-03T09:44:30;5.10;;;4.60;;
23175;SDS011;19910;42.652;23.332;2022-07-03T09:47:09;5.90;;;5.40;;
23175;SDS011;19910;42.652;23.332;2022-07-03T09:49:45;5.38;;;4.88;;
23175;SDS011;19910;42.652;23.332;2022-07-03T09:52:26;6.72;;;4.88;;
23175;SDS011;19910;42.652;23.332;2022-07-03T09:55:12;6.03;;;5.07;;
23175;SDS011;19910;42.652;23.332;2022-07-03T09:57:41;5.68;;;4.68;;
23175;SDS011;19910;42.652;23.332;2022-07-03T10:00:10;5.65;;;5.10;;
23175;SDS011;19910;42.652;23.332;2022-07-03T10:02:53;7.25;;;4.80;;
23175;SDS011;19910;42.652;23.332;2022-07-03T10:05:21;6.53;;;5.20;;
23175;SDS011;19910;42.652;23.332;2022-07-03T10:07:49;5.30;;;4.80;;
23175;SDS011;19910;42.652;23.332;2022-07-03T10:10:17;4.50;;;4.10;;
23175;SDS011;19910;42.652;23.332;2022-07-03T10:12:47;4.30;;;3.90;;
23175;SDS011;19910;42.652;23.332;2022-07-03T10:15:15;5.00;;;4.43;;
23175;SDS011;19910;42.652;23.332;2022-07-03T10:17:42;6.80;;;5.20;;
23175;SDS011;19910;42.652;23.332;2022-07-03T10:20:14;7.22;;;4.30;;
23175;SDS011;19910;42.652;23.332;2022-07-03T10:22:42;5.85;;;4.57;;
23175;SDS011;19910;42.652;23.332;2022-07-03T10:25:12;4.78;;;4.13;;
23175;SDS011;19910;42.652;23.332;2022-07-03T10:27:39;4.43;;;4.03;;
23175;SDS011;19910;42.652;23.332;2022-07-03T10:30:08;4.40;;;4.00;;
23175;SDS011;19910;42.652;23.332;2022-07-03T10:32:35;4.00;;;3.70;;
23175;SDS011;19910;42.652;23.332;2022-07-03T10:35:04;4.45;;;3.60;;
23175;SDS011;19910;42.652;23.332;2022-07-03T10:37:38;4.30;;;3.95;;
23175;SDS011;19910;42.652;23.332;2022-07-03T10:40:19;6.97;;;3.97;;
23175;SDS011;19910;42.652;23.332;2022-07-03T10:43:13;3.70;;;3.40;;
23175;SDS011;19910;42.652;23.332;2022-07-03T10:46:08;4.22;;;3.58;;
23175;SDS011;19910;42.652;23.332;2022-07-03T10:48:52;7.30;;;3.92;;
23175;SDS011;19910;42.652;23.332;2022-07-03T10:51:26;3.67;;;3.20;;
23175;SDS011;19910;42.652;23.332;2022-07-03T10:54:14;3.92;;;3.58;;
23175;SDS011;19910;42.652;23.332;2022-07-03T10:57:04;4.53;;;4.13;;
23175;SDS011;19910;42.652;23.332;2022-07-03T11:02:41;4.00;;;3.65;;
23175;SDS011;19910;42.652;23.332;2022-07-03T11:05:10;3.85;;;3.45;;
23175;SDS011;19910;42.652;23.332;2022-07-03T11:07:42;4.28;;;3.78;;
23175;SDS011;19910;42.652;23.332;2022-07-03T11:10:30;4.22;;;3.92;;
23175;SDS011;19910;42.652;23.332;2022-07-03T11:12:57;5.40;;;3.92;;
23175;SDS011;19910;42.652;23.332;2022-07-03T11:15:29;4.53;;;4.13;;
23175;SDS011;19910;42.652;23.332;2022-07-03T11:27:14;6.20;;;5.57;;
23175;SDS011;19910;42.652;23.332;2022-07-03T11:29:48;4.32;;;3.92;;
23175;SDS011;19910;42.652;23.332;2022-07-03T11:32:34;5.97;;;4.40;;
23175;SDS011;19910;42.652;23.332;2022-07-03T11:38:12;4.60;;;4.10;;
23175;SDS011;19910;42.652;23.332;2022-07-03T11:40:41;4.30;;;3.90;;
23175;SDS011;19910;42.652;23.332;2022-07-03T11:43:11;6.18;;;3.95;;
23175;SDS011;19910;42.652;23.332;2022-07-03T11:45:38;4.72;;;4.28;;
23175;SDS011;19910;42.652;23.332;2022-07-03T11:48:07;4.28;;;3.97;;
23175;SDS011;19910;42.652;23.332;2022-07-03T11:50:38;4.55;;;4.15;;
23175;SDS011;19910;42.652;23.332;2022-07-03T11:55:58;4.63;;;4.22;;
23175;SDS011;19910;42.652;23.332;2022-07-03T11:58:39;5.00;;;4.10;;
23175;SDS011;19910;42.652;23.332;2022-07-03T12:01:08;4.82;;;4.20;;
23175;SDS011;19910;42.652;23.332;2022-07-03T12:03:35;4.97;;;4.47;;
23175;SDS011;19910;42.652;23.332;2022-07-03T12:06:02;4.30;;;3.90;;
23175;SDS011;19910;42.652;23.332;2022-07-03T12:08:30;5.22;;;4.38;;
23175;SDS011;19910;42.652;23.332;2022-07-03T12:10:59;5.10;;;4.47;;
23175;SDS011;19910;42.652;23.332;2022-07-03T12:13:30;5.40;;;4.90;;
23175;SDS011;19910;42.652;23.332;2022-07-03T12:16:02;4.45;;;3.53;;
23175;SDS011;19910;42.652;23.332;2022-07-03T12:21:14;4.57;;;4.18;;
23175;SDS011;19910;42.652;23.332;2022-07-03T12:23:42;4.55;;;4.15;;
23175;SDS011;19910;42.652;23.332;2022-07-03T12:26:10;6.28;;;4.50;;
23175;SDS011;19910;42.652;23.332;2022-07-03T12:28:39;4.38;;;3.97;;
23175;SDS011;19910;42.652;23.332;2022-07-03T12:31:06;4.78;;;4.38;;
23175;SDS011;19910;42.652;23.332;2022-07-03T12:33:34;5.20;;;3.88;;
23175;SDS011;19910;42.652;23.332;2022-07-03T12:36:02;5.15;;;4.65;;
23175;SDS011;19910;42.652;23.332;2022-07-03T12:38:29;8.82;;;4.80;;
23175;SDS011;19910;42.652;23.332;2022-07-03T12:41:03;7.97;;;5.20;;
23175;SDS011;19910;42.652;23.332;2022-07-03T12:43:39;7.32;;;5.55;;
23175;SDS011;19910;42.652;23.332;2022-07-03T12:46:17;5.75;;;4.20;;
23175;SDS011;19910;42.652;23.332;2022-07-03T12:48:45;4.78;;;4.32;;
23175;SDS011;19910;42.652;23.332;2022-07-03T12:51:12;4.50;;;4.10;;
23175;SDS011;19910;42.652;23.332;2022-07-03T12:53:39;5.25;;;4.80;;
23175;SDS011;19910;42.652;23.332;2022-07-03T12:56:06;4.93;;;4.30;;
23175;SDS011;19910;42.652;23.332;2022-07-03T12:58:35;4.95;;;4.45;;
23175;SDS011;19910;42.652;23.332;2022-07-03T13:01:26;4.60;;;4.20;;
23175;SDS011;19910;42.652;23.332;2022-07-03T13:03:55;5.07;;;4.43;;
23175;SDS011;19910;42.652;23.332;2022-07-03T13:06:22;5.53;;;4.50;;
23175;SDS011;19910;42.652;23.332;2022-07-03T13:08:50;4.68;;;3.90;;
23175;SDS011;19910;42.652;23.332;2022-07-03T13:11:25;5.03;;;4.18;;
23175;SDS011;19910;42.652;23.332;2022-07-03T13:13:53;4.70;;;4.30;;
23175;SDS011;19910;42.652;23.332;2022-07-03T13:16:24;4.10;;;3.80;;
23175;SDS011;19910;42.652;23.332;2022-07-03T13:18:59;4.68;;;4.25;;
23175;SDS011;19910;42.652;23.332;2022-07-03T13:21:26;4.40;;;4.00;;
23175;SDS011;19910;42.652;23.332;2022-07-03T13:23:53;4.93;;;4.22;;
23175;SDS011;19910;42.652;23.332;2022-07-03T13:26:20;4.60;;;4.20;;
23175;SDS011;19910;42.652;23.332;2022-07-03T13:28:46;5.13;;;4.63;;
23175;SDS011;19910;42.652;23.332;2022-07-03T13:31:13;6.25;;;5.10;;
23175;SDS011;19910;42.652;23.332;2022-07-03T13:33:40;5.05;;;4.65;;
23175;SDS011;19910;42.652;23.332;2022-07-03T13:36:08;5.60;;;5.03;;
23175;SDS011;19910;42.652;23.332;2022-07-03T13:38:35;5.47;;;4.97;;
23175;SDS011;19910;42.652;23.332;2022-07-03T13:41:02;4.88;;;4.47;;
23175;SDS011;19910;42.652;23.332;2022-07-03T13:43:29;5.38;;;4.80;;
23175;SDS011;19910;42.652;23.332;2022-07-03T13:45:56;5.97;;;5.00;;
23175;SDS011;19910;42.652;23.332;2022-07-03T13:48:22;5.20;;;4.60;;
23175;SDS011;19910;42.652;23.332;2022-07-03T13:50:49;5.07;;;4.57;;
23175;SDS011;19910;42.652;23.332;2022-07-03T13:53:17;4.97;;;4.57;;
23175;SDS011;19910;42.652;23.332;2022-07-03T13:55:44;4.82;;;4.40;;
23175;SDS011;19910;42.652;23.332;2022-07-03T13:58:12;5.15;;;4.70;;
23175;SDS011;19910;42.652;23.332;2022-07-03T14:00:39;4.70;;;4.25;;
23175;SDS011;19910;42.652;23.332;2022-07-03T14:03:06;4.80;;;4.40;;
23175;SDS011;19910;42.652;23.332;2022-07-03T14:05:32;5.07;;;4.60;;
23175;SDS011;19910;42.652;23.332;2022-07-03T14:07:59;4.97;;;4.57;;
23175;SDS011;19910;42.652;23.332;2022-07-03T14:10:28;5.68;;;4.85;;
23175;SDS011;19910;42.652;23.332;2022-07-03T14:12:55;7.07;;;4.90;;
23175;SDS011;19910;42.652;23.332;2022-07-03T14:15:21;5.88;;;5.38;;
23175;SDS011;19910;42.652;23.332;2022-07-03T14:17:48;5.85;;;5.20;;
23175;SDS011;19910;42.652;23.332;2022-07-03T14:20:15;9.88;;;4.85;;
23175;SDS011;19910;42.652;23.332;2022-07-03T14:22:42;5.07;;;4.57;;
23175;SDS011;19910;42.652;23.332;2022-07-03T14:25:09;5.00;;;4.50;;
23175;SDS011;19910;42.652;23.332;2022-07-03T14:27:37;5.60;;;5.10;;
23175;SDS011;19910;42.652;23.332;2022-07-03T14:30:22;6.97;;;4.93;;
23175;SDS011;19910;42.652;23.332;2022-07-03T14:33:06;5.82;;;5.13;;
23175;SDS011;19910;42.652;23.332;2022-07-03T14:35:33;5.57;;;4.70;;
23175;SDS011;19910;42.652;23.332;2022-07-03T14:38:01;5.20;;;4.70;;
23175;SDS011;19910;42.652;23.332;2022-07-03T14:40:28;5.65;;;4.95;;
23175;SDS011;19910;42.652;23.332;2022-07-03T14:42:57;5.85;;;4.60;;
23175;SDS011;19910;42.652;23.332;2022-07-03T14:45:24;5.50;;;4.32;;
23175;SDS011;19910;42.652;23.332;2022-07-03T14:47:51;5.32;;;4.82;;
23175;SDS011;19910;42.652;23.332;2022-07-03T14:50:17;5.70;;;5.20;;
23175;SDS011;19910;42.652;23.332;2022-07-03T14:52:45;4.93;;;4.45;;
23175;SDS011;19910;42.652;23.332;2022-07-03T14:55:12;5.82;;;5.20;;
23175;SDS011;19910;42.652;23.332;2022-07-03T14:57:41;4.90;;;4.50;;
23175;SDS011;19910;42.652;23.332;2022-07-03T15:00:14;5.95;;;5.18;;
23175;SDS011;19910;42.652;23.332;2022-07-03T15:02:43;5.07;;;4.63;;
23175;SDS011;19910;42.652;23.332;2022-07-03T15:05:14;5.20;;;4.80;;
23175;SDS011;19910;42.652;23.332;2022-07-03T15:07:42;5.78;;;5.10;;
23175;SDS011;19910;42.652;23.332;2022-07-03T15:10:14;5.57;;;4.95;;
23175;SDS011;19910;42.652;23.332;2022-07-03T15:12:42;5.90;;;4.50;;
23175;SDS011;19910;42.652;23.332;2022-07-03T15:15:13;5.80;;;4.75;;